Denver, CO

7:56 AM MDT on April 27, 2015 (GMT -0600)
University Hills | | Change Station
CLOSE
Current Station
Personal Weather Station
Location: Denver, CO
Elevation: 5457 ft
Nearby Weather Stations

Elev 5457 ft 39.66 °N, 104.92 °W | Updated 60 seconds ago

Rain
Rain
39.1 °F
Feels Like 39 °F
N
0.0
Wind Variable Wind from North
Gusts 0.0 mph

Today
High -- | Low -- °F
--% Chance of Precip.
Yesterday
High -- | Low -- °F
Precip. -- in
6:05 AM 7:49 PM
Waxing Gibbous, 65% visible
Pressure 30.20 in
Visibility 2.0 miles
Clouds Mostly Cloudy 500 ft
Overcast 1000 ft
Windchill 39 °F
Dew Point 36 °F
Humidity 88%
Rainfall 0.07 in
Snow Depth Not available.
UV 0 out of 12
Pollen 3.10 out of 12
Air Quality Not available.
Flu Activity Sporadic
SPECI KAPA 271339Z 05004KT 2SM -RA BR BKN005 OVC010 02/02 A3020 RMK AO2 P0002 T00220022

More Conditions Fewer Conditions

Pressure 30.20 in
Visibility 2.0 miles
Clouds Mostly Cloudy 500 ft
Overcast 1000 ft
Windchill 39 °F
Dew Point 36 °F
Humidity 88%
Rainfall 0.07 in
Snow Depth Not available.
UV 0 out of 12
Pollen 3.10 out of 12
Air Quality Not available.
Flu Activity Sporadic
SPECI KAPA 271339Z 05004KT 2SM -RA BR BKN005 OVC010 02/02 A3020 RMK AO2 P0002 T00220022

More Conditions Fewer Conditions

10-Day Weather Forecast

Almanac

Astronomy

Apr. 27, 2015 Rise Set
Actual Time
Civil Twilight
Nautical Twilight
Astronomical Twilight
Moon
Length of Visible Light
Length of Day
Tomorrow will be .
, % of the Moon is Illuminated

Today's Extremes

State Highs State Lows

Community

WunderPhotos

Upload Photos

1,817,309 photos uploaded!

WunderBlogs® & News

Nearby

Air Quality

  Air Quality AQ Index Pollutant
Not available.

Snow Depth

Station Depth Elevation

Earthquake Activity

City Distance Mag. Time & Date
Minimum magnitude displayed is 2.5.

Coastal Water Temperatures

Place Temperature

Stations

Nearby Weather Stations

Station Location Temp. Windchill Dew Point Humidity Wind Precip. Elev Updated Type